Dr No — WDJ4022 — position and weather

sailwx.info

Track history (hours):
 
Tides and Currents Weather Stations Pressure Air Temp Water Temp Dewpoint Dewpoint Depression Visibility Wind Speed Wind Dir Waves Ship Positions

Dr No

Owner: DR NO LLC, Ft Laudedale, FL. More information available from US FCC via Universal Licensing System and Coast Guard Vessel Documentation Center.

Last reported at 2018-Jun-23 21:48 UTC. Time now 2018-Jun-24 20:40 UTC.
Position N 25°47' W 080°11'.

; draft 2 m.

Type: Pleasure craft. MMSI: 303558000.

Date/timePositionNaut miles runAvg speedWind from/ knotsBaromVisibWave heightAir tempDewpointWater temp
2018-Jun-23 21:48N 25°47' W 080°11'0 0.0
2018-Jun-23 21:30N 25°47' W 080°11'1 1.3
2018-Jun-23 21:01N 25°47' W 080°11'2 2.7
2018-Jun-23 20:27N 25°47' W 080°09'0 0.0
2018-Jun-23 20:00N 25°47' W 080°09'0 0.0
2018-Jun-23 19:30N 25°47' W 080°09'0 0.0
2018-Jun-23 19:00N 25°47' W 080°09'0 0.0
2018-Jun-23 18:30N 25°47' W 080°09'0 0.0
2018-Jun-23 18:00N 25°47' W 080°09'0 0.1
2018-Jun-23 17:30N 25°47' W 080°09'0 0.0
2018-Jun-23 17:00N 25°47' W 080°09'0 0.1
2018-Jun-23 16:30N 25°47' W 080°09'2 3.2
2018-Jun-23 16:00N 25°46' W 080°11'0 0.7
2018-Jun-23 15:30N 25°46' W 080°11'1 1.2
2018-Jun-23 14:55N 25°47' W 080°11'0 0.0
2018-Jun-23 14:28N 25°47' W 080°11'0 0.0
2018-Jun-22 23:32N 25°47' W 080°11'0 0.3
2018-Jun-22 23:29N 25°47' W 080°11'0 0.0
2018-Jun-22 22:53N 25°47' W 080°11'0 0.0
2018-Jun-22 22:29N 25°47' W 080°11'1 2.6
2018-Jun-22 22:00N 25°46' W 080°11'4 7.6
2018-Jun-22 21:29N 25°42' W 080°11'1 0.9
2018-Jun-22 20:50N 25°42' W 080°11'0 0.0
2018-Jun-22 20:17N 25°42' W 080°11'0 0.0
2018-Jun-22 19:59N 25°42' W 080°11'0 0.0
2018-Jun-22 19:26N 25°42' W 080°11'2 4.9
2018-Jun-22 19:00N 25°44' W 080°11'3 5.6
2018-Jun-22 18:30N 25°46' W 080°09'1 1.5
2018-Jun-22 17:56N 25°47' W 080°09'0 0.0
2018-Jun-22 17:29N 25°47' W 080°09'0 0.0
2018-Jun-22 16:56N 25°47' W 080°09'0 0.1
2018-Jun-22 16:26N 25°47' W 080°09'0 0.0
2018-Jun-22 15:59N 25°47' W 080°09'0 0.0
2018-Jun-22 15:30N 25°47' W 080°09'1 2.3
2018-Jun-22 15:01N 25°46' W 080°10'1 2.0
2018-Jun-22 14:30N 25°47' W 080°11'0 0.0
2018-Jun-22 14:00N 25°47' W 080°11'0 0.0
2018-Jun-22 00:01N 25°47' W 080°11'0 0.0
2018-Jun-21 23:58N 25°47' W 080°11'0 0.0
2018-Jun-21 23:30N 25°47' W 080°11'0 0.6
2018-Jun-21 22:56N 25°48' W 080°11'1 3.2
2018-Jun-21 22:31N 25°47' W 080°09'1 1.1
2018-Jun-21 21:59N 25°47' W 080°09'0 0.0
2018-Jun-21 21:29N 25°47' W 080°09'0 0.0
2018-Jun-21 20:59N 25°47' W 080°09'0 0.0
2018-Jun-21 20:29N 25°47' W 080°09'0 0.0
2018-Jun-21 19:59N 25°47' W 080°09'1 1.6
2018-Jun-21 19:30N 25°46' W 080°09'3 5.1
2018-Jun-21 19:00N 25°46' W 080°11'1 1.6
2018-Jun-21 18:28N 25°47' W 080°12'0 0.0
2018-Jun-21 17:58N 25°47' W 080°12'0 0.0
2018-Jun-21 17:25N 25°47' W 080°12'0 0.0
2018-Jun-21 16:58N 25°47' W 080°12'1 2.0
2018-Jun-21 16:30N 25°46' W 080°11'1 2.2
2018-Jun-21 15:59N 25°47' W 080°11'0 0.0
2018-Jun-21 15:29N 25°47' W 080°11'0 0.0
2018-Jun-21 14:59N 25°47' W 080°11'0 0.0
2018-Jun-21 14:29N 25°47' W 080°11'0 0.0
2018-Jun-21 13:59N 25°47' W 080°11'  
2018-Jun-18 19:41N 25°47' W 080°11'0 0.0
2018-Jun-18 19:29N 25°47' W 080°11'0 0.0
2018-Jun-18 18:59N 25°47' W 080°11'0 0.0
2018-Jun-18 18:29N 25°47' W 080°11'0 0.0
2018-Jun-18 17:59N 25°47' W 080°11'0 0.0
2018-Jun-18 17:29N 25°47' W 080°11'0 0.0
2018-Jun-18 16:56N 25°47' W 080°11'0 0.0
2018-Jun-18 16:29N 25°47' W 080°11'0 0.0
2018-Jun-18 15:59N 25°47' W 080°11'0 0.0
2018-Jun-18 15:29N 25°47' W 080°11'0 0.0
2018-Jun-18 00:05N 25°47' W 080°11'0 0.0
2018-Jun-17 23:59N 25°47' W 080°11'0 0.0
2018-Jun-17 23:29N 25°47' W 080°11'0 0.0
2018-Jun-17 23:01N 25°47' W 080°11'2 4.3
2018-Jun-17 22:30N 25°46' W 080°09'2 4.6
2018-Jun-17 22:01N 25°45' W 080°11'3 5.9
2018-Jun-17 21:27N 25°42' W 080°11'0 0.0
2018-Jun-17 21:00N 25°42' W 080°11'0 0.0
2018-Jun-17 20:21N 25°42' W 080°11'0 0.0
2018-Jun-17 19:57N 25°42' W 080°11'0 0.0
2018-Jun-17 19:27N 25°42' W 080°11'2 4.2
2018-Jun-17 19:00N 25°43' W 080°11'3 5.6
2018-Jun-17 18:30N 25°46' W 080°10'1 2.4
2018-Jun-17 18:00N 25°47' W 080°09'2 3.6
2018-Jun-17 17:30N 25°46' W 080°11'1 1.7
2018-Jun-17 16:58N 25°47' W 080°11'0 0.0
2018-Jun-17 16:28N 25°47' W 080°11'0 0.0
2018-Jun-17 15:58N 25°47' W 080°11'0 0.0
2018-Jun-15 14:40N 25°47' W 080°11'0 0.0
2018-Jun-15 14:25N 25°47' W 080°11'0 0.0
2018-Jun-15 13:58N 25°47' W 080°11'0 0.0
2018-Jun-15 13:25N 25°47' W 080°11'0 0.0
2018-Jun-15 12:58N 25°47' W 080°11'0 0.0
2018-Jun-15 12:28N 25°47' W 080°11'0 0.0
2018-Jun-15 11:58N 25°47' W 080°11'0 0.0
2018-Jun-15 11:28N 25°47' W 080°11'0 0.0
2018-Jun-15 10:58N 25°47' W 080°11'0 0.0
2018-Jun-15 10:28N 25°47' W 080°11'0 0.0
2018-Jun-15 09:55N 25°47' W 080°11'0 0.0
2018-Jun-15 09:28N 25°47' W 080°11'0 0.0
2018-Jun-15 08:58N 25°47' W 080°11'0 0.0
2018-Jun-15 08:25N 25°47' W 080°11'0 0.0
2018-Jun-15 07:58N 25°47' W 080°11'0 0.0
2018-Jun-15 07:28N 25°47' W 080°11'0 0.0
2018-Jun-15 06:58N 25°47' W 080°11'0 0.0
2018-Jun-15 06:28N 25°47' W 080°11'0 0.0
2018-Jun-15 05:58N 25°47' W 080°11'0 0.0
2018-Jun-15 05:28N 25°47' W 080°11'0 0.0
2018-Jun-15 04:58N 25°47' W 080°11'0 0.0
2018-Jun-15 04:28N 25°47' W 080°11'0 0.0
2018-Jun-15 03:58N 25°47' W 080°11'0 0.0
2018-Jun-15 03:28N 25°47' W 080°11'0 0.0
2018-Jun-15 02:58N 25°47' W 080°11'0 0.0
2018-Jun-15 02:28N 25°47' W 080°11'0 0.0
2018-Jun-15 01:58N 25°47' W 080°11'0 0.0
2018-Jun-15 01:25N 25°47' W 080°11'0 0.0
2018-Jun-15 00:58N 25°47' W 080°11'0 0.0
2018-Jun-15 00:28N 25°47' W 080°11'0 0.0
2018-Jun-14 23:58N 25°47' W 080°11'0 0.0
2018-Jun-14 23:25N 25°47' W 080°11'0 0.0
2018-Jun-14 22:55N 25°47' W 080°11'0 0.0
2018-Jun-14 22:28N 25°47' W 080°11'0 0.0
2018-Jun-14 21:58N 25°47' W 080°11'3 6.9
2018-Jun-14 21:30N 25°44' W 080°11'2 4.6
2018-Jun-14 20:59N 25°42' W 080°11'0 0.0
2018-Jun-14 20:29N 25°42' W 080°11'0 0.4
2018-Jun-14 20:00N 25°42' W 080°11'3 5.5
2018-Jun-14 19:30N 25°39' W 080°09'4 7.3
2018-Jun-14 19:00N 25°42' W 080°11'4 7.5
2018-Jun-14 18:30N 25°46' W 080°11'1 2.1
2018-Jun-14 17:59N 25°47' W 080°11'0 0.0
2018-Jun-14 17:29N 25°47' W 080°11'0 0.0
2018-Jun-14 16:59N 25°47' W 080°11'0 0.0
2018-Jun-14 16:29N 25°47' W 080°11'0 0.0
2018-Jun-14 15:59N 25°47' W 080°11'0 0.0
2018-Jun-14 15:29N 25°47' W 080°11'0 0.0
2018-Jun-14 14:59N 25°47' W 080°11'  
Track history (hours):
 
Tides and Currents Weather Stations Pressure Air Temp Water Temp Dewpoint Dewpoint Depression Visibility Wind Speed Wind Dir Waves Ship Positions

Dr No

Owner: DR NO LLC, Ft Laudedale, FL. More information available from US FCC via Universal Licensing System and Coast Guard Vessel Documentation Center.

Last reported at 2018-Jun-23 21:48 UTC. Time now 2018-Jun-24 20:40 UTC.
Position N 25°47' W 080°11'.

; draft 2 m.

Type: Pleasure craft. MMSI: 303558000.

Date/timePositionNaut miles runAvg speedWind from/ knotsBaromVisibWave heightAir tempDewpointWater temp
2018-Jun-23 21:48N 25°47' W 080°11'0 0.0
2018-Jun-23 21:30N 25°47' W 080°11'1 1.3
2018-Jun-23 21:01N 25°47' W 080°11'2 2.7
2018-Jun-23 20:27N 25°47' W 080°09'0 0.0
2018-Jun-23 20:00N 25°47' W 080°09'0 0.0
2018-Jun-23 19:30N 25°47' W 080°09'0 0.0
2018-Jun-23 19:00N 25°47' W 080°09'0 0.0
2018-Jun-23 18:30N 25°47' W 080°09'0 0.0
2018-Jun-23 18:00N 25°47' W 080°09'0 0.1
2018-Jun-23 17:30N 25°47' W 080°09'0 0.0
2018-Jun-23 17:00N 25°47' W 080°09'0 0.1
2018-Jun-23 16:30N 25°47' W 080°09'2 3.2
2018-Jun-23 16:00N 25°46' W 080°11'0 0.7
2018-Jun-23 15:30N 25°46' W 080°11'1 1.2
2018-Jun-23 14:55N 25°47' W 080°11'0 0.0
2018-Jun-23 14:28N 25°47' W 080°11'0 0.0
2018-Jun-22 23:32N 25°47' W 080°11'0 0.3
2018-Jun-22 23:29N 25°47' W 080°11'0 0.0
2018-Jun-22 22:53N 25°47' W 080°11'0 0.0
2018-Jun-22 22:29N 25°47' W 080°11'1 2.6
2018-Jun-22 22:00N 25°46' W 080°11'4 7.6
2018-Jun-22 21:29N 25°42' W 080°11'1 0.9
2018-Jun-22 20:50N 25°42' W 080°11'0 0.0
2018-Jun-22 20:17N 25°42' W 080°11'0 0.0
2018-Jun-22 19:59N 25°42' W 080°11'0 0.0
2018-Jun-22 19:26N 25°42' W 080°11'2 4.9
2018-Jun-22 19:00N 25°44' W 080°11'3 5.6
2018-Jun-22 18:30N 25°46' W 080°09'1 1.5
2018-Jun-22 17:56N 25°47' W 080°09'0 0.0
2018-Jun-22 17:29N 25°47' W 080°09'0 0.0
2018-Jun-22 16:56N 25°47' W 080°09'0 0.1
2018-Jun-22 16:26N 25°47' W 080°09'0 0.0
2018-Jun-22 15:59N 25°47' W 080°09'0 0.0
2018-Jun-22 15:30N 25°47' W 080°09'1 2.3
2018-Jun-22 15:01N 25°46' W 080°10'1 2.0
2018-Jun-22 14:30N 25°47' W 080°11'0 0.0
2018-Jun-22 14:00N 25°47' W 080°11'0 0.0
2018-Jun-22 00:01N 25°47' W 080°11'0 0.0
2018-Jun-21 23:58N 25°47' W 080°11'0 0.0
2018-Jun-21 23:30N 25°47' W 080°11'0 0.6
2018-Jun-21 22:56N 25°48' W 080°11'1 3.2
2018-Jun-21 22:31N 25°47' W 080°09'1 1.1
2018-Jun-21 21:59N 25°47' W 080°09'0 0.0
2018-Jun-21 21:29N 25°47' W 080°09'0 0.0
2018-Jun-21 20:59N 25°47' W 080°09'0 0.0
2018-Jun-21 20:29N 25°47' W 080°09'0 0.0
2018-Jun-21 19:59N 25°47' W 080°09'1 1.6
2018-Jun-21 19:30N 25°46' W 080°09'3 5.1
2018-Jun-21 19:00N 25°46' W 080°11'1 1.6
2018-Jun-21 18:28N 25°47' W 080°12'0 0.0
2018-Jun-21 17:58N 25°47' W 080°12'0 0.0
2018-Jun-21 17:25N 25°47' W 080°12'0 0.0
2018-Jun-21 16:58N 25°47' W 080°12'1 2.0
2018-Jun-21 16:30N 25°46' W 080°11'1 2.2
2018-Jun-21 15:59N 25°47' W 080°11'0 0.0
2018-Jun-21 15:29N 25°47' W 080°11'0 0.0
2018-Jun-21 14:59N 25°47' W 080°11'0 0.0
2018-Jun-21 14:29N 25°47' W 080°11'0 0.0
2018-Jun-21 13:59N 25°47' W 080°11'  
2018-Jun-18 19:41N 25°47' W 080°11'0 0.0
2018-Jun-18 19:29N 25°47' W 080°11'0 0.0
2018-Jun-18 18:59N 25°47' W 080°11'0 0.0
2018-Jun-18 18:29N 25°47' W 080°11'0 0.0
2018-Jun-18 17:59N 25°47' W 080°11'0 0.0
2018-Jun-18 17:29N 25°47' W 080°11'0 0.0
2018-Jun-18 16:56N 25°47' W 080°11'0 0.0
2018-Jun-18 16:29N 25°47' W 080°11'0 0.0
2018-Jun-18 15:59N 25°47' W 080°11'0 0.0
2018-Jun-18 15:29N 25°47' W 080°11'0 0.0
2018-Jun-18 00:05N 25°47' W 080°11'0 0.0
2018-Jun-17 23:59N 25°47' W 080°11'0 0.0
2018-Jun-17 23:29N 25°47' W 080°11'0 0.0
2018-Jun-17 23:01N 25°47' W 080°11'2 4.3
2018-Jun-17 22:30N 25°46' W 080°09'2 4.6
2018-Jun-17 22:01N 25°45' W 080°11'3 5.9
2018-Jun-17 21:27N 25°42' W 080°11'0 0.0
2018-Jun-17 21:00N 25°42' W 080°11'0 0.0
2018-Jun-17 20:21N 25°42' W 080°11'0 0.0
2018-Jun-17 19:57N 25°42' W 080°11'0 0.0
2018-Jun-17 19:27N 25°42' W 080°11'2 4.2
2018-Jun-17 19:00N 25°43' W 080°11'3 5.6
2018-Jun-17 18:30N 25°46' W 080°10'1 2.4
2018-Jun-17 18:00N 25°47' W 080°09'2 3.6
2018-Jun-17 17:30N 25°46' W 080°11'1 1.7
2018-Jun-17 16:58N 25°47' W 080°11'0 0.0
2018-Jun-17 16:28N 25°47' W 080°11'0 0.0
2018-Jun-17 15:58N 25°47' W 080°11'0 0.0
2018-Jun-15 14:40N 25°47' W 080°11'0 0.0
2018-Jun-15 14:25N 25°47' W 080°11'0 0.0
2018-Jun-15 13:58N 25°47' W 080°11'0 0.0
2018-Jun-15 13:25N 25°47' W 080°11'0 0.0
2018-Jun-15 12:58N 25°47' W 080°11'0 0.0
2018-Jun-15 12:28N 25°47' W 080°11'0 0.0
2018-Jun-15 11:58N 25°47' W 080°11'0 0.0
2018-Jun-15 11:28N 25°47' W 080°11'0 0.0
2018-Jun-15 10:58N 25°47' W 080°11'0 0.0
2018-Jun-15 10:28N 25°47' W 080°11'0 0.0
2018-Jun-15 09:55N 25°47' W 080°11'0 0.0
2018-Jun-15 09:28N 25°47' W 080°11'0 0.0
2018-Jun-15 08:58N 25°47' W 080°11'0 0.0
2018-Jun-15 08:25N 25°47' W 080°11'0 0.0
2018-Jun-15 07:58N 25°47' W 080°11'0 0.0
2018-Jun-15 07:28N 25°47' W 080°11'0 0.0
2018-Jun-15 06:58N 25°47' W 080°11'0 0.0
2018-Jun-15 06:28N 25°47' W 080°11'0 0.0
2018-Jun-15 05:58N 25°47' W 080°11'0 0.0
2018-Jun-15 05:28N 25°47' W 080°11'0 0.0
2018-Jun-15 04:58N 25°47' W 080°11'0 0.0
2018-Jun-15 04:28N 25°47' W 080°11'0 0.0
2018-Jun-15 03:58N 25°47' W 080°11'0 0.0
2018-Jun-15 03:28N 25°47' W 080°11'0 0.0
2018-Jun-15 02:58N 25°47' W 080°11'0 0.0
2018-Jun-15 02:28N 25°47' W 080°11'0 0.0
2018-Jun-15 01:58N 25°47' W 080°11'0 0.0
2018-Jun-15 01:25N 25°47' W 080°11'0 0.0
2018-Jun-15 00:58N 25°47' W 080°11'0 0.0
2018-Jun-15 00:28N 25°47' W 080°11'0 0.0
2018-Jun-14 23:58N 25°47' W 080°11'0 0.0
2018-Jun-14 23:25N 25°47' W 080°11'0 0.0
2018-Jun-14 22:55N 25°47' W 080°11'0 0.0
2018-Jun-14 22:28N 25°47' W 080°11'0 0.0
2018-Jun-14 21:58N 25°47' W 080°11'3 6.9
2018-Jun-14 21:30N 25°44' W 080°11'2 4.6
2018-Jun-14 20:59N 25°42' W 080°11'0 0.0
2018-Jun-14 20:29N 25°42' W 080°11'0 0.4
2018-Jun-14 20:00N 25°42' W 080°11'3 5.5
2018-Jun-14 19:30N 25°39' W 080°09'4 7.3
2018-Jun-14 19:00N 25°42' W 080°11'4 7.5
2018-Jun-14 18:30N 25°46' W 080°11'1 2.1
2018-Jun-14 17:59N 25°47' W 080°11'0 0.0
2018-Jun-14 17:29N 25°47' W 080°11'0 0.0
2018-Jun-14 16:59N 25°47' W 080°11'0 0.0
2018-Jun-14 16:29N 25°47' W 080°11'0 0.0
2018-Jun-14 15:59N 25°47' W 080°11'0 0.0
2018-Jun-14 15:29N 25°47' W 080°11'0 0.0
2018-Jun-14 14:59N 25°47' W 080°11'  

Dump ship's entire track history